• Join FlightAware (Why Join?)
  • Login
  • US Flag 
08:09PM EST


 

Airport Tracker/Info


-or-


 

Live Flight TrackerFlight Track Log ✈ JZA8792 ✈ 30-Apr-2014 ✈ CYUL - CYSJ

Flight Track Log - Related Links

Times and Time Zones

All times are in EDT time to prevent confusion due to time zone crossing. See the JZA8792 flight status page for this flight to view local times or setup timezone preferences in your user account.

Time Position Orientation Groundspeed Altitude Reporting Facility
EDT Latitude Longitude Course Direction KTS MPH feet Rate Location/Type
09:03PM 45.4667 -73.7000 35° Northeast 110 127 1,300  Level Montreal Center
09:04PM 45.5000 -73.6667 35° Northeast 140 161 2,500 1,140 Climbing Montreal Center
09:05PM 45.5167 -73.6167 65° Northeast 140 161 3,600 1,080 Climbing Montreal Center
09:06PM 45.5167 -73.5833 90° East 140 161 4,700 1,080 Climbing Montreal Center
09:07PM 45.5167 -73.5000 90° East 160 184 5,800 1,020 Climbing Montreal Center
09:08PM 45.5000 -73.4333 110° East 190 219 6,800 1,200 Climbing Montreal Center
09:09PM 45.5000 -73.3667 90° East 190 219 8,200 1,140 Climbing Montreal Center
09:10PM 45.4833 -73.2667 103° East 200 230 9,100 1,020 Climbing Montreal Center
09:11PM 45.4667 -73.2000 110° East 210 242 10,300 1,080 Climbing Montreal Center
09:12PM 45.4667 -73.1000 90° East 210 242 11,300 960 Climbing Montreal Center
09:13PM 45.4667 -73.0333 90° East 210 242 12,300 900 Climbing Montreal Center
09:14PM 45.4667 -72.9333 90° East 220 253 13,100 780 Climbing Montreal Center
09:15PM 45.4667 -72.8667 90° East 220 253 13,900 780 Climbing Montreal Center
09:16PM 45.4667 -72.7667 90° East 220 253 14,700 780 Climbing Montreal Center
09:17PM 45.4667 -72.7000 90° East 210 242 15,500 780 Climbing Montreal Center
09:18PM 45.4667 -72.6000 90° East 210 242 16,300 660 Climbing Montreal Center
09:19PM 45.4667 -72.5000 90° East 220 253 16,900 600 Climbing Montreal Center
09:20PM 45.4667 -72.4000 90° East 220 253 17,600 540 Climbing Montreal Center
09:21PM 45.4667 -72.3333 90° East 220 253 18,000 480 Climbing Montreal Center
09:22PM 45.4667 -72.2333 90° East 220 253 18,600 540 Climbing Montreal Center
09:23PM 45.4667 -72.1500 90° East 220 253 19,100 480 Climbing Montreal Center
09:24PM 45.4667 -72.0667 90° East 230 265 19,600 420 Climbing Montreal Center
09:25PM 45.4667 -71.9833 90° East 230 265 20,000 360 Climbing Montreal Center
09:26PM 45.4667 -71.8833 90° East 230 265 20,400 360 Climbing Montreal Center
09:27PM 45.4833 -71.7833 77° East 240 276 20,800 300 Climbing Montreal Center
09:28PM 45.4667 -71.6833 103° East 240 276 21,000 60 Climbing Montreal Center
09:29PM 45.4667 -71.6000 90° East 250 288 21,000  Level Montreal Center
09:30PM 45.4667 -71.4833 90° East 260 299 21,000  Level Montreal Center
09:31PM 45.4833 -71.3833 77° East 270 311 21,000  Level Montreal Center
09:32PM 45.4667 -71.2667 101° East 270 311 21,000  Level Montreal Center
09:33PM 45.4667 -71.1667 90° East 270 311 21,000  Level Montreal Center
09:34PM 45.4797 -71.0797 78° East 270 311 21,000  Level Boston Center
09:35PM 45.4789 -70.9717 91° East 271 312 21,000  Level Boston Center
09:36PM 45.4667 -70.8500 98° East 270 311 21,000  Level Montreal Center
09:37PM 45.4667 -70.7333 90° East 280 322 21,000  Level Montreal Center
09:38PM 45.4667 -70.6167 90° East 270 311 21,000  Level Montreal Center
09:39PM 45.4667 -70.5167 90° East 270 311 21,000  Level Montreal Center
09:40PM 45.4667 -70.4000 90° East 270 311 21,000  Level Montreal Center
09:41PM 45.4667 -70.3000 90° East 270 311 21,000  Level Montreal Center
09:42PM 45.4667 -70.1833 90° East 270 311 21,000  Level Montreal Center
09:43PM 45.4667 -70.0833 90° East 270 311 21,000  Level Montreal Center
09:44PM 45.4500 -69.9667 101° East 280 322 21,000  Level Montreal Center
09:45PM 45.4500 -69.8667 90° East 270 311 21,000  Level Montreal Center
09:46PM 45.4667 -69.7500 78° East 270 311 21,000  Level Montreal Center
09:47PM 45.4500 -69.6500 103° East 270 311 21,000  Level Montreal Center
09:48PM 45.4500 -69.5333 90° East 270 311 21,000  Level Montreal Center
09:48PM 45.4333 -69.5000 125° Southeast 270 311 21,000  Level Moncton Center
09:49PM 45.4500 -69.4000 77° East 270 311 21,000  Level Moncton Center
09:50PM 45.4589 -69.3108 82° East 274 315 21,000  Level Boston Center
09:51PM 45.4569 -69.2008 91° East 274 315 21,000  Level Boston Center
09:52PM 45.4544 -69.0903 92° East 274 315 21,000  Level Boston Center
09:53PM 45.4511 -68.9803 92° East 274 315 21,000  Level Boston Center
09:54PM 45.4497 -68.8706 91° East 274 315 21,000  Level Boston Center
09:55PM 45.4472 -68.7600 92° East 275 316 21,000  Level Boston Center
09:56PM 45.4431 -68.6517 93° East 275 316 21,000  Level Boston Center
09:57PM 45.4411 -68.5433 91° East 274 315 21,000  Level Boston Center
09:58PM 45.4383 -68.4336 92° East 274 315 21,000  Level Boston Center
09:59PM 45.4353 -68.3256 92° East 274 315 21,000  Level Boston Center
10:00PM 45.4331 -68.2158 92° East 274 315 21,000  Level Boston Center
10:01PM 45.4294 -68.1050 93° East 275 316 21,000 -300 Level Boston Center
10:02PM 45.4250 -67.9942 93° East 277 319 20,500 -540 Descending Boston Center
10:03PM 45.4219 -67.8756 92° East 292 336 20,000 -540 Descending Boston Center
10:04PM 45.4175 -67.7583 93° East 293 337 19,500 -540 Descending Boston Center
10:05PM 45.4139 -67.6417 92° East 293 337 19,000 -600 Descending Boston Center
10:06PM 45.4000 -67.5000 98° East 300 345 18,300 -420 Descending Moncton Center
10:07PM 45.3833 -67.3667 100° East 290 334 18,200 -300 Descending Moncton Center
10:08PM 45.3833 -67.2500 90° East 290 334 17,700 -900 Descending Moncton Center
10:09PM 45.3833 -67.1333 90° East 300 345 16,400 -1,440 Descending Moncton Center
10:10PM 45.3833 -67.0167 90° East 310 357 14,900 -1,560 Descending Moncton Center
10:11PM 45.3833 -66.9000 90° East 310 357 13,300 -1,500 Descending Moncton Center
10:12PM 45.3667 -66.7833 101° East 300 345 11,900 -1,500 Descending Moncton Center
10:13PM 45.3667 -66.6667 90° East 300 345 10,400 -1,440 Descending Moncton Center
10:14PM 45.3667 -66.5333 90° East 280 322 9,100 -1,380 Descending Moncton Center
10:15PM 45.3667 -66.4500 90° East 270 311 7,700 -1,320 Descending Moncton Center
10:16PM 45.3667 -66.3500 90° East 260 299 6,500 -1,260 Descending Moncton Center
10:17PM 45.4000 -66.2333 68° East 250 288 5,200 -1,200 Descending Moncton Center
10:18PM 45.4000 -66.1667 90° East 240 276 4,100 -1,020 Descending Moncton Center
10:19PM 45.4000 -66.0667 90° East 200 230 3,200 -900 Descending Moncton Center
10:20PM 45.3667 -66.0167 133° Southeast 170 196 2,300 -900 Descending Moncton Center
10:21PM 45.3500 -65.9667 115° Southeast 150 173 1,500 -780 Descending Moncton Center
10:22PM 45.3333 -65.9167 115° Southeast 130 150 800 -540 Descending Moncton Center
10:23PM 45.3167 -65.9000 145° Southeast 120 138 500 -300 Descending Moncton Center